Terminal Aerodrome Forecast
Issued by NWS

Home | Current Version | Previous Version | Text Only | Print | Product List | Glossary On
Versions: 1 2 3 4 5 6 7 8 9 10 11 12 13 14 15 16 17
971
FTUS43 KOAX 271141 CCA
TAFSNY
TAF COR
KSNY 271141Z 2712/2812 11009KT P6SM BKN008
     FM271600 07010G17KT P6SM BKN120
     FM272000 09013G23KT P6SM VCTS BKN080CB
     FM280100 12010G20KT P6SM VCTS BKN080CB
     FM280400 18008KT P6SM BKN080=

USA.gov is the U.S. government's official web portal to all federal, state and local government web resources and services.